AirBox status report


DeploymentNumber of DevicesDetailAvg. TemperatureAvg. HumidityAvg. PM2.5Version
1 Edimax AirBox (Taipei, 2016) [12.26% (19/155)] [HTML] [JSON] [Dataset A]26.82℃ 91.42% 16.16 μg/m3 2019-05-25T22:55:33Z
2 Edimax AirBox (New Taipei, 2016) [27.85% (83/298)] [HTML] [JSON] [Dataset B]25.65℃ 93.63% 21.17 μg/m3 2019-05-25T22:55:33Z
3 Edimax AirBox (Taoyuan, 2017) [26.38% (62/235)] [HTML] [JSON] [Dataset A]25.61℃ 90.79% 25.74 μg/m3 2019-05-25T22:55:33Z
4 Edimax AirBox (Taichung, 2016) [86.21% (200/232)] [HTML] [JSON] [Dataset B]26.25℃ 94.72% 28.91 μg/m3 2019-05-25T22:55:33Z
5 Edimax AirBox (Tainan, 2016) [45.33% (97/214)] [HTML] [JSON] [Dataset B]26.49℃ 94.27% 28.92 μg/m3 2019-05-25T22:55:33Z
6 Edimax AirBox (Kaohsiung, 2016) [7.85% (19/242)] [HTML] [JSON] [Dataset B]26.43℃ 93.95% 22.42 μg/m3 2019-05-25T22:55:33Z
7 Edimax AirBox (Korea) 100% (1131/1131) [HTML] [JSON] [Dataset Z]22.63℃ 67.64% 33.58 μg/m3 2019-05-25T22:55:35Z
8 Edimax AirBox (LASS) [6.76% (5/74)] [HTML] [JSON] [Dataset A]29.09℃ 80.8% 20.4 μg/m3 2019-05-25T22:55:35Z
9 Edimax AirBox (TaichungZero) [49.32% (73/148)] [HTML] [JSON] [Dataset A]26.58℃ 94.3% 33.08 μg/m3 2019-05-25T22:55:35Z
10 Edimax AirBox (TaoyuanFirst) [55.56% (15/27)] [HTML] [JSON] [Dataset A]26.14℃ 92% 27.6 μg/m3 2019-05-25T22:55:35Z
11 Edimax AirBox (other) 100% (1116/1116) [HTML] [JSON] [Dataset A]28.61℃ 78% 29 μg/m3 2019-05-25T22:55:35Z
12 LASS AirBox (Hsinchu, 2017) [38% (19/50)] [HTML] [JSON] [Dataset A]26.04℃ 91.37% 25.32 μg/m3 2019-05-25T22:55:33Z
13 LASS AirBox (Yunlin, 2017) [34.2% (66/193)] [HTML] [JSON] [Dataset A]26.33℃ 94.44% 47.39 μg/m3 2019-05-25T22:55:33Z
14 LASS AirBox (Chiayi, 2017) [39.22% (20/51)] [HTML] [JSON] [Dataset A]26.82℃ 96.05% 33.3 μg/m3 2019-05-25T22:55:33Z
15 LASS AirBox (Chiayi County, 2017) [19.44% (35/180)] [HTML] [JSON] [Dataset A]25.91℃ 95.34% 35.74 μg/m3 2019-05-25T22:55:33Z
16 LASS AirBox (Kinmen, 2017) [19.23% (5/26)] [HTML] [JSON] [Dataset A]25.12℃ 100% 48.6 μg/m3 2019-05-25T22:55:33Z
17 LASS AirBox (Hsinchu County, 2018) [60% (81/135)] [HTML] [JSON] [Dataset A]23.98℃ 85.67% 28.8 μg/m3 2019-05-25T22:55:34Z
18 LASS AirBox (Yilan, 2018) [50.42% (60/119)] [HTML] [JSON] [Dataset A]23.57℃ 86.35% 34.7 μg/m3 2019-05-25T22:55:34Z
19 LASS AirBox (Hualien, 2018) [23.02% (29/126)] [HTML] [JSON] [Dataset A]22.59℃ 91.66% 21 μg/m3 2019-05-25T22:55:33Z
20 LASS AirBox (Pingtung, 2018) [43.91% (101/230)] [HTML] [JSON] [Dataset A]25.28℃ 90.95% 32.62 μg/m3 2019-05-25T22:55:33Z
21 LASS AirBox (Penghu, 2018) [27.45% (14/51)] [HTML] [JSON] [Dataset A]26℃ 95.93% 32.64 μg/m3 2019-05-25T22:55:34Z
22 LASS AirBox (Keelung, 2018) [30.51% (18/59)] [HTML] [JSON] [Dataset A]25.15℃ 76.44% 33.61 μg/m3 2019-05-25T22:55:34Z
23 LASS AirBox (Taitung, 2018) [44.92% (53/118)] [HTML] [JSON] [Dataset A]23.12℃ 87.57% 26.66 μg/m3 2019-05-25T22:55:34Z
24 LASS AirBox (Miaoli, 2018) [64.15% (102/159)] [HTML] [JSON] [Dataset A]22.24℃ 87.13% 31.84 μg/m3 2019-05-25T22:55:34Z
25 LASS AirBox (Matsu, 2018) [12.5% (1/8)] [HTML] [JSON] [Dataset A]25.25℃ 90% 48 μg/m3 2019-05-25T22:55:34Z
26 LASS AirBox (Kaohsiung, 2018) [52.98% (178/336)] [HTML] [JSON] [Dataset A]25.44℃ 80.08% 32.17 μg/m3 2019-05-25T22:55:34Z
27 LASS AirBox (NewTaipei, 2018) [52.32% (169/323)] [HTML] [JSON] [Dataset A]24.76℃ 73.66% 29.85 μg/m3 2019-05-25T22:55:34Z
28 LASS AirBox (Taipei, 2018) 2.25% (5/222) [HTML] [JSON] [Dataset A]24.7℃ 67.2% 31 μg/m3 2019-05-25T22:55:34Z
29 LASS AirBox (EPA, 2019) 0% (0/39) [HTML] [JSON] [Dataset A]0℃ 0% 0 μg/m3 2019-04-08T08:02:51Z
30 LASS AirBox (HualienEducational, 2018) [33.33% (9/27)] [HTML] [JSON] [Dataset A]21.94℃ 73.89% 36.11 μg/m3 2019-05-25T22:55:35Z
31 LASS (LASS FT) 100% (75/75) [HTML] [JSON] [Dataset C]27.21℃ 85.83% 24.05 μg/m3 2019-05-25T22:55:35Z
32 LASS (LASS4U) 100% (48/48) [HTML] [JSON] [Dataset D]26.8℃ 72.27% 21 μg/m3 2019-05-25T22:55:35Z
33 MAPS (WiFi) [3.45% (3/87)] [HTML] [JSON] [Dataset E]11.25℃ 16.57% 30.67 μg/m3 2019-05-25T22:55:35Z
34 MAPS (RESCUE_TW) [15.63% (5/32)] [HTML] [JSON] [Dataset K]24.5℃ 62.34% 22.4 μg/m3 2019-05-25T22:55:35Z
35 MAPS (RESCUE_TWKH) [20% (4/20)] [HTML] [JSON] [Dataset K]30.15℃ 50.63% 30.5 μg/m3 2019-05-25T23:00:38Z
36 MAPS (other) 100% (19/19) [HTML] [JSON] [Dataset E]0℃ 0% 0 μg/m3 2019-05-25T22:55:35Z
37 PiM25 100% (1/1) [HTML] [JSON] [Dataset N]0℃ 0% 32 μg/m3 2019-05-25T22:55:35Z
38 ASLUNG 100% (1/1) [HTML] [JSON] [Dataset F]28.5℃ 70% 35 μg/m3 2019-05-25T22:55:35Z
39 *AirQ 100% (169/169) [HTML] [JSON] [Dataset J]0℃ 0% 25.42 μg/m3 2019-05-25T22:55:35Z
40 *AirU 100% (79/79) [HTML] [JSON] [Dataset L]0℃ 0% 0.56 μg/m3 2019-05-25T22:55:35Z
41 ITRI_PM25 100% (38/38) [HTML] [JSON] [Dataset M]0℃ 0% 16.71 μg/m3 2019-05-25T22:55:35Z
42 *Asus AirBox 100% (25/25) [HTML] [JSON] [Dataset G]27.59℃ 77.09% 26.76 μg/m3 2019-05-25T22:55:35Z
43 *gov Indie N/A (0/0) [HTML] [JSON] [Dataset H]0℃ 0% 0 μg/m3 2019-05-25T22:55:35Z
44 *ProbeCube 100% (3/3) [HTML] [JSON] [Dataset I]28.93℃ 49.23% 0 μg/m3 2019-05-25T22:55:35Z
45 *DustBoy 100% (54/54) [HTML] [JSON] [Dataset O]25.54℃ 81.01% 30.98 μg/m3 2019-05-25T22:55:35Z
46 Total 61.78% (4309/6975)

Resource:

Note: